Jacquet River, Canada
Current Conditions -  °F | °C
As of 8:00 AM on Wednesday 26 Nov 2014 (Local Time) from CZBF Reporting Station
Broken Clouds Broken Clouds  
Wind Chill: 31°   Ceiling: 22000
Heat Index: 37°   Visibility: 15mi
Dew Point: 25°   Wind: 9mph
Humidity: 60%   Direction: 230°SW
Pressure: 30.05"   Gusts: NA
Location:  47.92°N, 66°W
Report Text: CZBF 261200Z 23008KT 15SM SCT160 BKN220 BKN240 03/M04 A3005 RMK AC4CC1CI2 SLP177
Loading
Personal Weather Stations






























Interactive Weather Map New forecast layout! Learn more

10-Day Weather Forecast

Advertisements
Track Severe Weather on mobile